Time;durP1;ratioP1;P1;durP2;ratioP2;P2;SDS_P1;SDS_P2;PMS_P1;PMS_P2;Temp;Humidity;BMP_temperature;BMP_pressure;BME280_temperature;BME280_humidity;BME280_pressure;Samples;Min_cycle;Max_cycle;Signal;HPM_P1;HPM_P2
2023/06/28 00:01:15;;;;;;;;;3.20;3.20;;;;;16.60;54.77;100119.25;5099278;28;8841;-59
2023/06/28 00:03:43;;;;;;;;;3.00;1.00;;;;;16.56;54.40;100121.41;5099411;28;8829;-59
2023/06/28 00:06:11;;;;;;;;;0.60;0.60;;;;;16.53;54.54;100123.53;5099456;28;8845;-59
2023/06/28 00:08:40;;;;;;;;;3.40;3.40;;;;;16.50;54.86;100124.69;5098331;28;8849;-58
2023/06/28 00:11:08;;;;;;;;;2.20;1.00;;;;;16.44;54.93;100121.78;5099842;28;8825;-58
2023/06/28 00:13:36;;;;;;;;;1.00;1.00;;;;;16.35;54.62;100112.78;5099195;28;8825;-57
2023/06/28 00:16:04;;;;;;;;;4.40;3.00;;;;;16.27;55.05;100120.75;5099209;28;8843;-58
2023/06/28 00:18:33;;;;;;;;;2.20;2.20;;;;;16.19;55.30;100112.63;5098524;28;8817;-57
2023/06/28 00:21:03;;;;;;;;;2.60;2.60;;;;;16.13;55.10;100127.66;5099141;28;8863;-58
2023/06/28 00:23:30;;;;;;;;;2.50;2.50;;;;;16.05;55.06;100131.13;5098486;28;8951;-57
2023/06/28 00:25:58;;;;;;;;;3.00;2.20;;;;;16.01;55.93;100128.91;5099418;28;8841;-59
2023/06/28 00:28:26;;;;;;;;;4.50;4.50;;;;;15.97;55.90;100135.56;5098668;28;9936;-59
2023/06/28 00:30:54;;;;;;;;;3.50;3.50;;;;;15.91;56.05;100128.97;5098973;28;8837;-58
2023/06/28 00:33:22;;;;;;;;;3.00;3.00;;;;;15.86;55.60;100135.78;5098387;28;8853;-57
2023/06/28 00:35:50;;;;;;;;;3.25;2.00;;;;;15.83;55.92;100130.69;5099125;28;8849;-56
2023/06/28 00:38:18;;;;;;;;;3.00;3.00;;;;;15.81;56.32;100130.00;5098120;28;9498;-57
2023/06/28 00:40:46;;;;;;;;;2.50;2.50;;;;;15.78;56.33;100127.63;5097666;28;8906;-57
2023/06/28 00:43:13;;;;;;;;;3.50;3.25;;;;;15.74;56.66;100132.47;5098168;28;8856;-58
2023/06/28 00:45:41;;;;;;;;;1.00;1.00;;;;;15.72;56.30;100131.78;5097473;28;8837;-58
2023/06/28 00:48:09;;;;;;;;;3.75;3.75;;;;;15.71;56.60;100124.69;5097715;28;8833;-56
2023/06/28 00:50:36;;;;;;;;;1.20;0.80;;;;;15.67;55.90;100126.00;5097163;28;8845;-59
2023/06/28 00:53:05;;;;;;;;;3.50;3.00;;;;;15.67;56.06;100119.75;5097698;28;8837;-57
2023/06/28 00:55:33;;;;;;;;;4.00;4.00;;;;;15.63;56.97;100121.06;5097525;28;8866;-58
2023/06/28 00:58:00;;;;;;;;;3.50;3.00;;;;;15.54;56.64;100128.19;5097878;28;8856;-58
2023/06/28 01:00:28;;;;;;;;;3.00;3.00;;;;;15.46;56.79;100136.13;5097079;28;9490;-58
2023/06/28 01:02:56;;;;;;;;;3.00;3.00;;;;;15.38;56.87;100130.66;5098178;28;8849;-58
2023/06/28 01:05:24;;;;;;;;;3.00;3.00;;;;;15.33;57.56;100132.09;5098288;28;8853;-57
2023/06/28 01:07:52;;;;;;;;;3.50;3.00;;;;;15.31;57.49;100142.09;5096995;28;8829;-56
2023/06/28 01:10:19;;;;;;;;;3.00;3.00;;;;;15.26;56.98;100147.06;5097679;28;8848;-57
2023/06/28 01:12:47;;;;;;;;;4.00;4.00;;;;;15.22;57.19;100146.50;5098672;28;8821;-58
2023/06/28 01:15:17;;;;;;;;;4.00;4.00;;;;;15.19;57.22;100146.81;5097668;28;8810;-57
2023/06/28 01:17:45;;;;;;;;;1.00;1.00;;;;;15.17;57.77;100147.94;5097916;28;8829;-57
2023/06/28 01:20:12;;;;;;;;;3.00;3.00;;;;;15.11;57.23;100143.97;5097647;28;8830;-57
2023/06/28 01:22:41;;;;;;;;;5.00;4.00;;;;;15.07;57.43;100152.47;5098276;28;8837;-57
2023/06/28 01:25:10;;;;;;;;;3.00;3.00;;;;;15.03;57.80;100151.91;5098175;28;8844;-59
2023/06/28 01:27:40;;;;;;;;;1.00;1.00;;;;;14.98;58.03;100147.97;5097326;28;8868;-57
2023/06/28 01:30:11;;;;;;;;;4.00;4.00;;;;;14.93;58.16;100150.22;5097690;28;8861;-57
2023/06/28 01:32:38;;;;;;;;;1.50;1.50;;;;;14.90;58.54;100150.53;5097527;28;8853;-58
2023/06/28 01:35:06;;;;;;;;;1.00;1.00;;;;;14.89;58.40;100148.84;5096090;28;8821;-57
2023/06/28 01:37:34;;;;;;;;;4.00;4.00;;;;;14.88;57.65;100157.88;5098020;28;8853;-58
2023/06/28 01:40:02;;;;;;;;;4.00;4.00;;;;;14.88;57.92;100155.22;5096971;28;8852;-57
2023/06/28 01:42:30;;;;;;;;;3.75;3.75;;;;;14.89;58.32;100159.56;5098129;28;8840;-57
2023/06/28 01:44:57;;;;;;;;;3.50;3.50;;;;;14.88;57.91;100157.88;5096221;28;8828;-57
2023/06/28 01:47:25;;;;;;;;;3.50;3.50;;;;;14.87;58.25;100150.84;5096782;28;8845;-57
2023/06/28 01:49:52;;;;;;;;;3.00;3.00;;;;;14.87;58.23;100151.66;5096984;28;8946;-58
2023/06/28 01:52:20;;;;;;;;;4.50;4.00;;;;;14.88;58.20;100155.22;5096643;28;8952;-57
2023/06/28 01:54:48;;;;;;;;;3.00;3.00;;;;;14.87;58.47;100157.03;5097120;28;8845;-57
2023/06/28 01:57:16;;;;;;;;;4.00;4.00;;;;;14.86;58.12;100149.16;5096323;28;8837;-56
2023/06/28 01:59:44;;;;;;;;;3.00;3.00;;;;;14.85;58.64;100155.47;5097544;28;8853;-57
2023/06/28 02:02:11;;;;;;;;;1.00;1.00;;;;;14.81;58.12;100154.91;5096760;28;8859;-57
2023/06/28 02:04:39;;;;;;;;;3.50;3.50;;;;;14.78;58.29;100160.59;5096191;28;8835;-58
2023/06/28 02:07:19;;;;;;;;;3.50;3.00;;;;;14.76;58.89;100159.88;5095298;28;8865;-59
2023/06/28 02:09:47;;;;;;;;;3.00;3.00;;;;;14.74;58.63;100158.34;5096144;28;8838;-59
2023/06/28 02:12:14;;;;;;;;;2.75;2.50;;;;;14.71;58.20;100161.31;5096734;28;8851;-59
2023/06/28 02:14:42;;;;;;;;;3.25;3.25;;;;;14.67;58.59;100159.88;5095983;28;8837;-58
2023/06/28 02:17:13;;;;;;;;;4.50;4.50;;;;;14.64;58.46;100152.13;5096695;28;9531;-59
2023/06/28 02:19:42;;;;;;;;;5.00;5.00;;;;;14.60;58.73;100151.59;5096816;28;8871;-59
2023/06/28 02:22:09;;;;;;;;;3.00;3.00;;;;;14.58;58.58;100158.91;5096784;28;8841;-58
2023/06/28 02:24:37;;;;;;;;;0.25;0.25;;;;;14.56;58.76;100158.19;5096159;28;8832;-58
2023/06/28 02:27:05;;;;;;;;;3.75;3.25;;;;;14.54;59.31;100154.81;5097055;28;8849;-59
2023/06/28 02:29:33;;;;;;;;;3.50;3.50;;;;;14.50;58.94;100149.88;5095551;28;8862;-57
2023/06/28 02:32:01;;;;;;;;;2.00;1.00;;;;;14.48;58.83;100154.56;5096598;28;8837;-57
2023/06/28 02:34:29;;;;;;;;;4.50;4.00;;;;;14.43;59.43;100154.13;5095785;28;8865;-59
2023/06/28 02:36:56;;;;;;;;;3.00;3.00;;;;;14.37;59.38;100146.63;5096304;28;8845;-59
2023/06/28 02:39:24;;;;;;;;;4.00;4.00;;;;;14.34;59.40;100153.13;5096075;28;8837;-59
2023/06/28 02:41:53;;;;;;;;;1.00;1.00;;;;;14.30;60.09;100145.50;5096032;28;8849;-57
2023/06/28 02:44:20;;;;;;;;;2.00;2.00;;;;;14.26;59.95;100149.47;5096018;28;9535;-58
2023/06/28 02:46:48;;;;;;;;;2.50;2.00;;;;;14.20;59.97;100140.13;5095767;28;9538;-59
2023/06/28 02:49:16;;;;;;;;;4.00;4.00;;;;;14.16;59.80;100146.75;5096414;28;8934;-59
2023/06/28 02:51:43;;;;;;;;;4.00;3.25;;;;;14.14;60.06;100145.19;5096434;28;8833;-59
2023/06/28 02:54:11;;;;;;;;;3.75;3.50;;;;;14.14;59.79;100147.88;5096706;28;8821;-59
2023/06/28 02:56:39;;;;;;;;;1.00;1.00;;;;;14.15;59.90;100155.78;5095842;28;8865;-59
2023/06/28 02:59:06;;;;;;;;;3.00;3.00;;;;;14.17;60.41;100163.63;5096232;28;8826;-59
2023/06/28 03:01:34;;;;;;;;;3.00;3.00;;;;;14.20;59.82;100166.09;5095847;28;8837;-59
2023/06/28 03:04:03;;;;;;;;;6.00;4.00;;;;;14.22;60.14;100164.13;5096147;28;8959;-59
2023/06/28 03:06:31;;;;;;;;;4.00;3.25;;;;;14.21;60.32;100165.09;5096164;28;8849;-59
2023/06/28 03:08:59;;;;;;;;;3.00;3.00;;;;;14.18;60.02;100158.19;5096421;28;8872;-58
2023/06/28 03:11:26;;;;;;;;;3.00;3.00;;;;;14.15;59.80;100157.59;5095977;28;8857;-59
2023/06/28 03:13:54;;;;;;;;;4.00;3.25;;;;;14.13;60.49;100159.56;5095595;28;8871;-58
2023/06/28 03:16:22;;;;;;;;;3.25;3.00;;;;;14.11;60.07;100156.19;5095748;28;8841;-59
2023/06/28 03:18:50;;;;;;;;;3.50;3.50;;;;;14.10;60.38;100154.47;5095982;28;8861;-59
2023/06/28 03:21:17;;;;;;;;;4.50;3.50;;;;;14.09;60.16;100156.31;5095605;28;8857;-58
2023/06/28 03:23:45;;;;;;;;;3.00;3.00;;;;;14.09;60.28;100159.00;5093834;28;8833;-59
2023/06/28 03:26:13;;;;;;;;;2.50;2.50;;;;;14.12;60.31;100152.53;5094954;28;8849;-59
2023/06/28 03:28:41;;;;;;;;;1.00;1.00;;;;;14.14;60.28;100151.41;5095441;28;8829;-59
2023/06/28 03:31:09;;;;;;;;;3.00;3.00;;;;;14.15;59.65;100155.78;5095580;28;8963;-59
2023/06/28 03:33:36;;;;;;;;;4.00;3.25;;;;;14.19;60.39;100149.16;5095329;28;8833;-59
2023/06/28 03:36:04;;;;;;;;;4.00;3.00;;;;;14.24;59.85;100151.41;5095305;28;8853;-59
2023/06/28 03:38:32;;;;;;;;;2.00;2.00;;;;;14.28;60.04;100147.50;5096001;28;8847;-59
2023/06/28 03:40:59;;;;;;;;;5.25;3.00;;;;;14.31;59.94;100142.69;5095725;28;8829;-59
2023/06/28 03:43:27;;;;;;;;;0.50;0.50;;;;;14.33;60.22;100139.88;5094852;28;8821;-59
2023/06/28 03:45:55;;;;;;;;;2.50;2.50;;;;;14.34;59.97;100139.72;5094328;28;8845;-58
2023/06/28 03:48:23;;;;;;;;;6.00;4.00;;;;;14.35;59.71;100148.63;5095251;28;8841;-59
2023/06/28 03:50:51;;;;;;;;;2.00;1.00;;;;;14.34;60.07;100147.75;5094627;28;8875;-57
2023/06/28 03:53:19;;;;;;;;;1.50;1.00;;;;;14.33;59.47;100145.25;5095165;28;8841;-57
2023/06/28 03:55:47;;;;;;;;;3.00;3.00;;;;;14.32;60.13;100138.16;5094832;28;8853;-58
2023/06/28 03:58:14;;;;;;;;;3.00;3.00;;;;;14.32;59.72;100146.19;5095004;28;8837;-56
2023/06/28 04:00:42;;;;;;;;;3.00;3.00;;;;;14.34;60.49;100158.47;5094201;28;8840;-56
2023/06/28 04:03:10;;;;;;;;;3.75;3.25;;;;;14.37;60.09;100147.50;5094691;28;8821;-57
2023/06/28 04:05:38;;;;;;;;;3.50;3.00;;;;;14.41;59.32;100137.34;5094675;28;8872;-59
2023/06/28 04:08:08;;;;;;;;;2.50;2.50;;;;;14.47;59.87;100137.63;5094709;28;8833;-58
2023/06/28 04:10:37;;;;;;;;;2.00;2.00;;;;;14.53;59.55;100142.41;5094788;28;9633;-58
2023/06/28 04:13:04;;;;;;;;;4.00;3.00;;;;;14.59;59.62;100143.66;5094337;28;8859;-59
2023/06/28 04:15:32;;;;;;;;;1.00;1.00;;;;;14.65;59.59;100129.72;5094447;28;8822;-57
2023/06/28 04:18:00;;;;;;;;;5.00;4.25;;;;;14.71;59.34;100139.88;5095433;28;8825;-57
2023/06/28 04:20:28;;;;;;;;;1.50;1.50;;;;;14.74;59.23;100134.19;5095613;28;8821;-57
2023/06/28 04:22:55;;;;;;;;;6.00;4.50;;;;;14.76;59.37;100142.94;5093973;28;8817;-57
2023/06/28 04:25:23;;;;;;;;;5.00;5.00;;;;;14.78;59.55;100135.59;5094469;28;8853;-58
2023/06/28 04:27:51;;;;;;;;;3.25;3.25;;;;;14.80;59.32;100136.31;5094888;28;8857;-59
2023/06/28 04:30:18;;;;;;;;;3.50;3.50;;;;;14.82;59.37;100139.69;5094251;28;8831;-58
2023/06/28 04:32:47;;;;;;;;;3.75;3.75;;;;;14.81;59.46;100136.16;5095085;28;8949;-57
2023/06/28 04:35:17;;;;;;;;;5.50;4.00;;;;;14.82;59.23;100139.69;5095462;28;8896;-58
2023/06/28 04:37:47;;;;;;;;;3.00;2.50;;;;;14.81;59.16;100143.38;5096569;28;8833;-59
2023/06/28 04:40:15;;;;;;;;;3.00;3.00;;;;;14.82;59.37;100153.97;5099177;28;8825;-56
2023/06/28 04:42:43;;;;;;;;;4.00;4.00;;;;;14.87;59.54;100140.13;5099608;28;8851;-56
2023/06/28 04:45:11;;;;;;;;;4.00;4.00;;;;;14.93;59.60;100150.22;5098775;28;8861;-57
2023/06/28 04:47:39;;;;;;;;;4.00;3.50;;;;;15.03;59.28;100138.50;5098004;28;8844;-58
2023/06/28 04:50:07;;;;;;;;;6.00;6.00;;;;;15.14;58.83;100132.13;5098704;28;8935;-57
2023/06/28 04:52:35;;;;;;;;;6.00;5.00;;;;;15.24;58.45;100135.63;5097592;28;8814;-57
2023/06/28 04:55:05;;;;;;;;;4.00;4.00;;;;;15.33;58.58;100140.16;5097909;28;8863;-56
2023/06/28 04:57:32;;;;;;;;;3.50;3.25;;;;;15.39;58.57;100136.88;5098392;28;8849;-58
2023/06/28 05:00:00;;;;;;;;;6.25;6.00;;;;;15.46;58.58;100144.19;5097819;28;8980;-57
2023/06/28 05:02:28;;;;;;;;;5.50;5.00;;;;;15.54;58.29;100135.41;5097473;28;8906;-57
2023/06/28 05:04:56;;;;;;;;;4.00;4.00;;;;;15.58;58.91;100144.84;5097786;28;9862;-58
2023/06/28 05:07:26;;;;;;;;;4.50;4.00;;;;;15.57;58.70;100138.63;5097992;28;8829;-57
2023/06/28 05:09:54;;;;;;;;;0.75;0.75;;;;;15.57;58.73;100135.09;5097945;28;8864;-56
2023/06/28 05:12:22;;;;;;;;;5.50;4.00;;;;;15.55;59.11;100129.84;5097456;28;8968;-57
2023/06/28 05:14:49;;;;;;;;;3.50;3.50;;;;;15.54;58.93;100135.41;5097926;28;8829;-57
2023/06/28 05:17:17;;;;;;;;;5.00;5.00;;;;;15.54;58.39;100135.41;5097666;28;8844;-57
2023/06/28 05:19:45;;;;;;;;;7.00;6.00;;;;;15.55;58.63;100137.09;5097923;28;8837;-58
2023/06/28 05:22:13;;;;;;;;;3.50;3.50;;;;;15.55;58.55;100140.59;5097930;28;8963;-56
2023/06/28 05:24:41;;;;;;;;;7.00;5.50;;;;;15.57;58.87;100132.41;5096840;28;8848;-58
2023/06/28 05:27:09;;;;;;;;;6.00;4.00;;;;;15.59;58.45;100139.31;5097542;28;8837;-56
2023/06/28 05:29:36;;;;;;;;;6.00;5.00;;;;;15.61;58.85;100140.00;5097117;28;8955;-58
2023/06/28 05:32:04;;;;;;;;;3.75;3.25;;;;;15.64;58.88;100137.00;5096817;28;8973;-58
2023/06/28 05:34:32;;;;;;;;;6.00;5.50;;;;;15.69;58.47;100139.28;5096289;28;8845;-58
2023/06/28 05:37:00;;;;;;;;;3.00;3.00;;;;;15.72;58.99;100138.97;5097823;28;8869;-56
2023/06/28 05:39:27;;;;;;;;;5.50;4.00;;;;;15.79;58.75;100145.44;5097480;28;9542;-58
2023/06/28 05:41:55;;;;;;;;;4.00;4.00;;;;;15.85;58.80;100136.78;5096315;28;8926;-59
2023/06/28 05:44:23;;;;;;;;;4.50;3.50;;;;;15.95;57.75;100138.41;5097099;28;8871;-59
2023/06/28 05:46:52;;;;;;;;;3.00;3.00;;;;;16.06;57.75;100137.31;5097239;28;8830;-57
2023/06/28 05:49:20;;;;;;;;;5.00;4.50;;;;;16.18;58.43;100142.34;5096690;28;8829;-59
2023/06/28 05:51:47;;;;;;;;;5.00;4.50;;;;;16.29;57.80;100132.22;5097145;28;8853;-58
2023/06/28 05:54:15;;;;;;;;;3.00;3.00;;;;;16.41;57.59;100128.31;5096115;28;8826;-58
2023/06/28 05:56:43;;;;;;;;;5.00;5.00;;;;;16.55;57.74;100122.41;5096484;28;8836;-57
2023/06/28 05:59:11;;;;;;;;;4.40;4.00;;;;;16.67;56.87;100123.84;5097596;28;8863;-59
2023/06/28 06:01:39;;;;;;;;;1.80;1.00;;;;;16.81;57.16;100122.44;5096328;28;8840;-59
2023/06/28 06:04:08;;;;;;;;;6.00;5.20;;;;;16.94;56.87;100115.63;5096390;28;8855;-58
2023/06/28 06:06:36;;;;;;;;;5.20;4.00;;;;;17.07;56.74;100123.28;5096619;28;8845;-58
2023/06/28 06:09:04;;;;;;;;;3.00;3.00;;;;;17.17;56.39;100124.03;5095651;28;8841;-59
2023/06/28 06:11:32;;;;;;;;;5.20;4.80;;;;;17.30;56.34;100122.59;5096541;28;8950;-59
2023/06/28 06:14:00;;;;;;;;;6.20;6.20;;;;;17.43;56.28;100114.94;5095002;28;8845;-58
2023/06/28 06:16:28;;;;;;;;;6.20;6.20;;;;;17.56;56.21;100123.44;5095717;28;8837;-58
2023/06/28 06:18:56;;;;;;;;;4.80;4.80;;;;;17.68;55.78;100126.69;5096017;28;8863;-57
2023/06/28 06:21:25;;;;;;;;;1.00;1.00;;;;;17.80;56.06;100126.22;5095134;28;8872;-59
2023/06/28 06:23:53;;;;;;;;;6.80;6.80;;;;;17.91;55.35;100123.22;5095318;28;8867;-57
2023/06/28 06:26:21;;;;;;;;;6.00;5.60;;;;;18.02;55.27;100116.66;5095869;28;8853;-60
2023/06/28 06:28:49;;;;;;;;;6.00;5.20;;;;;18.13;55.79;100122.59;5095396;28;8929;-59
2023/06/28 06:31:16;;;;;;;;;6.00;5.20;;;;;18.23;55.64;100106.28;5095867;28;8849;-59
2023/06/28 06:33:44;;;;;;;;;5.80;5.80;;;;;18.32;55.20;100111.53;5093873;28;8972;-57
2023/06/28 06:36:13;;;;;;;;;4.00;3.60;;;;;18.39;55.53;100112.56;5095590;28;8907;-57
2023/06/28 06:38:41;;;;;;;;;7.00;6.20;;;;;18.47;54.81;100109.00;5095648;28;8860;-59
2023/06/28 06:41:08;;;;;;;;;4.40;4.40;;;;;18.55;55.34;100114.41;5096226;28;8879;-60
2023/06/28 06:43:36;;;;;;;;;6.20;6.00;;;;;18.64;55.44;100106.16;5095540;28;8841;-59
2023/06/28 06:46:05;;;;;;;;;6.00;5.20;;;;;18.80;54.72;100099.88;5096070;28;8868;-59
2023/06/28 06:48:33;;;;;;;;;3.60;3.20;;;;;18.93;54.95;100100.22;5095700;28;8859;-57
2023/06/28 06:51:01;;;;;;;;;6.00;6.00;;;;;19.00;54.49;100102.06;5095962;28;8837;-59
2023/06/28 06:53:28;;;;;;;;;1.00;1.00;;;;;19.01;54.65;100105.59;5095225;28;8845;-57
2023/06/28 06:55:56;;;;;;;;;6.40;6.00;;;;;19.05;54.49;100105.09;5094194;28;8860;-58
2023/06/28 06:58:25;;;;;;;;;6.60;6.60;;;;;19.11;54.77;100101.69;5094086;28;8873;-57
2023/06/28 07:00:55;;;;;;;;;6.80;4.00;;;;;19.17;54.64;100106.41;5095208;28;8953;-59
2023/06/28 07:03:22;;;;;;;;;4.00;3.80;;;;;19.23;54.78;100104.91;5094428;28;8835;-58
2023/06/28 07:05:50;;;;;;;;;3.20;1.00;;;;;19.28;54.75;100110.66;5094870;28;8860;-57
2023/06/28 07:08:18;;;;;;;;;4.80;4.80;;;;;19.32;54.60;100103.88;5094379;28;8860;-59
2023/06/28 07:10:46;;;;;;;;;3.80;3.00;;;;;19.34;54.28;100097.28;5095276;28;8861;-58
2023/06/28 07:13:15;;;;;;;;;2.20;1.40;;;;;19.38;54.24;100103.19;5094326;28;8969;-59
2023/06/28 07:15:43;;;;;;;;;3.20;3.00;;;;;19.39;54.36;100102.16;5094797;28;8918;-57
2023/06/28 07:18:11;;;;;;;;;4.40;4.00;;;;;19.38;54.76;100120.25;5094405;28;9023;-56
2023/06/28 07:20:39;;;;;;;;;4.00;4.00;;;;;19.44;54.72;100118.69;5094417;28;8837;-59
2023/06/28 07:23:07;;;;;;;;;9.20;6.80;;;;;19.51;54.55;100117.81;5093980;28;8817;-59
2023/06/28 07:25:36;;;;;;;;;3.60;1.00;;;;;19.58;54.41;100113.41;5093809;28;9562;-59
2023/06/28 07:28:04;;;;;;;;;3.60;3.40;;;;;19.70;53.86;100114.72;5093933;28;8848;-57
2023/06/28 07:30:32;;;;;;;;;4.00;4.00;;;;;19.78;53.83;100114.66;5093949;28;8857;-57
2023/06/28 07:33:00;;;;;;;;;4.00;4.00;;;;;19.86;53.95;100125.44;5093128;28;8833;-59
2023/06/28 07:35:30;;;;;;;;;1.60;1.20;;;;;20.04;53.78;100125.19;5093567;28;8950;-60
2023/06/28 07:37:59;;;;;;;;;4.40;4.00;;;;;20.17;53.59;100122.78;5094300;28;9542;-59
2023/06/28 07:40:27;;;;;;;;;1.00;1.00;;;;;20.31;53.02;100113.91;5094189;28;8875;-57
2023/06/28 07:42:54;;;;;;;;;6.00;4.60;;;;;20.36;53.12;100106.91;5094634;28;8825;-59
2023/06/28 07:45:23;;;;;;;;;2.40;2.40;;;;;20.41;53.21;100107.19;5094333;28;8855;-58
2023/06/28 07:47:53;;;;;;;;;2.00;2.00;;;;;20.46;52.99;100115.63;5094345;28;8921;-58
2023/06/28 07:50:22;;;;;;;;;1.20;1.20;;;;;20.49;52.41;100120.66;5094295;28;8855;-58
2023/06/28 07:52:50;;;;;;;;;4.00;2.00;;;;;20.54;53.04;100123.69;5094385;28;8848;-59
2023/06/28 07:55:18;;;;;;;;;2.80;2.00;;;;;20.59;52.90;100115.88;5094524;28;8849;-60
2023/06/28 07:57:46;;;;;;;;;6.40;6.00;;;;;20.72;52.37;100109.84;5094693;28;8988;-59
2023/06/28 08:00:14;;;;;;;;;4.00;4.00;;;;;20.85;52.47;100113.59;5094243;28;8845;-57
2023/06/28 08:02:42;;;;;;;;;4.20;4.20;;;;;20.98;51.99;100105.72;5093871;28;8832;-57
2023/06/28 08:05:10;;;;;;;;;7.40;7.00;;;;;21.11;51.62;100105.94;5094166;28;8849;-57
2023/06/28 08:07:38;;;;;;;;;4.00;3.60;;;;;21.23;51.45;100109.88;5093532;28;8849;-60
2023/06/28 08:10:08;;;;;;;;;5.40;5.40;;;;;21.29;51.45;100106.41;5094010;28;8853;-59
2023/06/28 08:12:36;;;;;;;;;4.40;2.40;;;;;21.39;51.59;100105.13;5094070;28;8872;-59
2023/06/28 08:15:04;;;;;;;;;5.20;4.00;;;;;21.39;51.65;100106.97;5098095;28;8979;-58
2023/06/28 08:17:32;;;;;;;;;8.00;6.20;;;;;21.42;51.10;100121.00;5098287;28;8837;-58
2023/06/28 08:20:00;;;;;;;;;6.20;6.20;;;;;21.47;51.21;100120.44;5097681;28;8968;-59
2023/06/28 08:22:28;;;;;;;;;4.80;4.00;;;;;21.53;51.24;100123.25;5097478;28;8829;-58
2023/06/28 08:24:56;;;;;;;;;4.20;2.40;;;;;21.67;50.81;100122.44;5098092;28;8975;-60
2023/06/28 08:27:25;;;;;;;;;4.20;4.20;;;;;21.90;50.67;100117.72;5097531;28;8836;-59
2023/06/28 08:29:53;;;;;;;;;4.60;4.00;;;;;22.13;50.05;100112.16;5097387;28;8933;-60
2023/06/28 08:32:21;;;;;;;;;6.00;5.00;;;;;22.26;49.89;100115.88;5095942;28;8849;-60
2023/06/28 08:34:49;;;;;;;;;5.00;5.00;;;;;22.38;49.62;100121.63;5099357;28;8817;-57
2023/06/28 08:37:18;;;;;;;;;5.00;4.00;;;;;22.41;49.74;100129.38;5118339;28;8831;-58
2023/06/28 08:39:48;;;;;;;;;5.40;4.00;;;;;22.43;49.82;100121.91;5118308;28;8939;-59
2023/06/28 08:42:19;;;;;;;;;5.00;4.00;;;;;22.46;50.01;100126.97;5097955;28;8890;-59
2023/06/28 08:44:47;;;;;;;;;5.00;4.40;;;;;22.50;50.07;100128.25;5097584;28;8837;-58
2023/06/28 08:47:15;;;;;;;;;4.00;4.00;;;;;22.55;49.62;100131.22;5098132;28;8855;-58
2023/06/28 08:49:43;;;;;;;;;5.00;5.00;;;;;22.66;49.68;100127.97;5097568;28;8825;-58
2023/06/28 08:52:11;;;;;;;;;6.20;5.00;;;;;22.80;49.23;100122.50;5097205;28;8837;-60
2023/06/28 08:54:39;;;;;;;;;4.00;4.00;;;;;22.93;49.01;100121.75;5097619;28;8837;-58
2023/06/28 08:57:07;;;;;;;;;4.60;4.60;;;;;23.05;49.27;100109.28;5096194;28;8933;-58
2023/06/28 08:59:39;;;;;;;;;2.00;2.00;;;;;23.18;48.87;100115.72;5098335;28;8825;-60
2023/06/28 09:02:08;;;;;;;;;5.00;4.40;;;;;23.25;48.40;100116.63;5096520;28;8829;-57
2023/06/28 09:04:37;;;;;;;;;3.60;3.60;;;;;23.27;48.64;100103.66;5097463;28;8841;-58
2023/06/28 09:07:04;;;;;;;;;4.00;4.00;;;;;23.34;48.56;100106.41;5096939;28;8974;-59
2023/06/28 09:09:32;;;;;;;;;4.40;4.20;;;;;23.36;48.36;100120.66;5095149;28;8841;-58
2023/06/28 09:12:00;;;;;;;;;4.00;2.00;;;;;23.25;48.76;100113.03;5095364;28;8883;-59
2023/06/28 09:14:29;;;;;;;;;1.40;1.40;;;;;23.18;49.18;100096.69;5095696;28;8883;-60
2023/06/28 09:16:57;;;;;;;;;4.20;4.20;;;;;23.30;48.76;100105.13;5095003;28;8822;-58
2023/06/28 09:19:25;;;;;;;;;2.00;2.00;;;;;23.43;48.37;100106.06;5095856;28;8821;-60
2023/06/28 09:21:53;;;;;;;;;1.20;1.20;;;;;23.45;48.47;100108.56;5095624;28;8853;-59
2023/06/28 09:24:21;;;;;;;;;2.00;2.00;;;;;23.41;48.59;100113.56;5096086;28;8983;-60
2023/06/28 09:26:50;;;;;;;;;2.00;2.00;;;;;23.48;48.53;100113.59;5096449;28;8957;-58
2023/06/28 09:29:18;;;;;;;;;0.00;0.00;;;;;23.43;48.00;100122.38;5096307;28;8962;-58
2023/06/28 09:31:46;;;;;;;;;1.60;1.60;;;;;23.39;48.58;100118.38;5096019;28;9611;-58
2023/06/28 09:34:14;;;;;;;;;1.00;1.00;;;;;23.35;48.36;100118.94;5096267;28;8891;-60
2023/06/28 09:36:42;;;;;;;;;5.00;2.00;;;;;23.30;48.28;100111.41;5096442;28;8873;-59
2023/06/28 09:39:10;;;;;;;;;1.40;1.00;;;;;23.32;47.99;100108.50;5095737;28;8833;-57
2023/06/28 09:41:39;;;;;;;;;1.80;1.80;;;;;23.37;47.78;100112.28;5075850;28;8858;-58
2023/06/28 09:44:09;;;;;;;;;4.00;4.00;;;;;23.42;47.96;100111.69;5075579;28;8875;-58
2023/06/28 09:46:37;;;;;;;;;1.20;1.00;;;;;23.33;47.87;100112.88;5076021;28;8843;-59
2023/06/28 09:49:05;;;;;;;;;2.40;2.00;;;;;23.26;47.94;100118.28;5083314;28;8837;-60
2023/06/28 09:51:33;;;;;;;;;5.20;4.00;;;;;23.12;48.65;100112.91;5095242;28;8845;-59
2023/06/28 09:54:03;;;;;;;;;2.00;2.00;;;;;22.99;48.80;100110.09;5095327;28;8945;-57
2023/06/28 09:56:32;;;;;;;;;4.00;3.60;;;;;22.89;48.44;100120.44;5093680;28;8922;-58
2023/06/28 09:59:00;;;;;;;;;4.40;4.40;;;;;22.85;49.01;100111.03;5094155;28;8840;-58
2023/06/28 10:01:28;;;;;;;;;2.00;1.60;;;;;22.90;48.51;100120.28;5095174;28;8836;-59
2023/06/28 10:03:56;;;;;;;;;2.00;2.00;;;;;23.10;48.38;100107.69;5095235;28;8833;-60
2023/06/28 10:06:24;;;;;;;;;2.00;1.60;;;;;23.26;48.22;100114.72;5093928;28;8864;-61
2023/06/28 10:08:52;;;;;;;;;1.20;1.20;;;;;23.42;47.92;100126.13;5094629;28;8934;-60
2023/06/28 10:11:21;;;;;;;;;2.00;1.80;;;;;23.66;46.98;100106.59;5095411;28;8930;-58
2023/06/28 10:13:52;;;;;;;;;2.00;1.60;;;;;23.70;47.01;100110.59;5096156;28;8908;-58
2023/06/28 10:16:20;;;;;;;;;1.00;1.00;;;;;23.61;47.80;100113.69;5095474;28;8841;-60
2023/06/28 10:18:48;;;;;;;;;2.00;2.00;;;;;23.41;47.66;100113.56;5095335;28;8825;-59
2023/06/28 10:21:17;;;;;;;;;0.00;0.00;;;;;23.28;47.69;100118.09;5094760;28;8853;-58
2023/06/28 10:23:44;;;;;;;;;1.20;1.20;;;;;23.21;48.11;100111.78;5095385;28;8894;-58
2023/06/28 10:26:12;;;;;;;;;1.00;0.20;;;;;23.26;48.59;100109.28;5095816;28;9540;-59
2023/06/28 10:28:41;;;;;;;;;0.20;0.20;;;;;23.49;47.69;100112.56;5095455;28;8845;-58
2023/06/28 10:31:09;;;;;;;;;2.40;2.00;;;;;23.66;47.17;100114.75;5095054;28;8861;-60
2023/06/28 10:33:37;;;;;;;;;2.00;2.00;;;;;23.65;47.64;100120.38;5094949;28;9475;-59
2023/06/28 10:36:05;;;;;;;;;2.40;2.40;;;;;23.70;47.35;100121.47;5094293;28;8877;-58
2023/06/28 10:38:34;;;;;;;;;1.60;1.60;;;;;23.68;47.25;100125.44;5095156;28;8880;-59
2023/06/28 10:41:02;;;;;;;;;1.00;1.00;;;;;23.73;47.20;100120.22;5095091;28;8818;-58
2023/06/28 10:43:30;;;;;;;;;1.20;1.20;;;;;23.72;47.13;100126.69;5095774;28;8845;-68
2023/06/28 10:45:59;;;;;;;;;1.80;1.60;;;;;23.73;47.11;100118.34;5095516;28;8841;-60
2023/06/28 10:48:27;;;;;;;;;2.00;2.00;;;;;23.89;46.74;100122.66;5095544;28;8938;-57
2023/06/28 10:50:55;;;;;;;;;3.40;2.60;;;;;24.09;46.47;100116.25;5095522;28;8851;-60
2023/06/28 10:53:22;;;;;;;;;3.00;2.00;;;;;24.26;46.42;100117.53;5094926;28;8933;-60
2023/06/28 10:55:51;;;;;;;;;1.00;1.00;;;;;24.20;45.99;100115.63;5095397;28;8826;-57
2023/06/28 10:58:19;;;;;;;;;1.80;1.80;;;;;24.34;46.51;100108.38;5095934;28;8857;-61
2023/06/28 11:00:47;;;;;;;;;0.00;0.00;;;;;24.56;46.27;100113.44;5094807;28;8821;-60
2023/06/28 11:03:15;;;;;;;;;2.00;1.00;;;;;24.78;45.34;100104.03;5094273;28;8826;-60
2023/06/28 11:05:43;;;;;;;;;0.80;0.80;;;;;24.96;45.56;100109.69;5094176;28;9526;-60
2023/06/28 11:08:13;;;;;;;;;1.00;1.00;;;;;25.47;44.58;100099.81;5094568;28;8926;-57
2023/06/28 11:10:41;;;;;;;;;1.20;1.20;;;;;25.80;43.85;100098.66;5094549;28;9487;-60
2023/06/28 11:13:09;;;;;;;;;2.00;2.00;;;;;25.81;43.73;100103.06;5094644;28;8888;-58
2023/06/28 11:15:39;;;;;;;;;1.60;1.60;;;;;25.66;44.24;100102.47;5094748;28;8967;-61
2023/06/28 11:18:08;;;;;;;;;2.20;2.00;;;;;25.34;44.70;100099.84;5095365;28;8841;-59
2023/06/28 11:20:36;;;;;;;;;2.00;2.00;;;;;25.15;45.82;100099.84;5095079;28;8864;-59
2023/06/28 11:23:04;;;;;;;;;0.60;0.40;;;;;25.05;45.79;100096.69;5094640;28;8845;-60
2023/06/28 11:25:32;;;;;;;;;3.00;3.00;;;;;25.11;45.81;100093.13;5094564;28;8833;-60
2023/06/28 11:28:00;;;;;;;;;2.60;2.60;;;;;25.02;45.73;100088.97;5093797;28;8849;-61
2023/06/28 11:30:28;;;;;;;;;3.80;2.80;;;;;25.23;45.61;100091.47;5093161;28;8837;-58
2023/06/28 11:32:57;;;;;;;;;3.00;3.00;;;;;25.44;45.31;100089.34;5093423;28;8837;-60
2023/06/28 11:35:25;;;;;;;;;3.00;3.00;;;;;25.40;45.12;100088.06;5093905;28;9003;-60
2023/06/28 11:37:53;;;;;;;;;2.80;2.80;;;;;25.20;45.76;100089.13;5093184;28;8849;-60